createdAt,value
2023-05-02T00:03:03.641Z,39.08
2023-05-02T00:06:03.566Z,39.12
2023-05-02T00:09:03.527Z,39.26
2023-05-02T00:12:03.500Z,39.28
2023-05-02T00:15:03.468Z,39.24
2023-05-02T00:18:03.563Z,39.17
2023-05-02T00:21:04.462Z,38.90
2023-05-02T00:24:04.495Z,38.78
2023-05-02T00:27:04.493Z,38.70
2023-05-02T00:30:05.534Z,38.59
2023-05-02T00:33:06.586Z,38.59
2023-05-02T00:36:06.616Z,38.97
2023-05-02T00:39:06.520Z,38.60
2023-05-02T00:42:10.509Z,38.53
2023-05-02T00:45:12.585Z,38.37
2023-05-02T00:48:13.590Z,38.40
2023-05-02T00:51:14.566Z,38.07
2023-05-02T00:54:14.725Z,38.04
2023-05-02T00:57:14.553Z,37.47
2023-05-02T01:00:14.619Z,37.78
2023-05-02T01:03:44.655Z,37.89
2023-05-02T01:06:44.660Z,37.63
2023-05-02T01:10:05.620Z,37.69
2023-05-02T01:13:22.652Z,37.93
2023-05-02T01:16:22.573Z,38.04
2023-05-02T01:19:49.704Z,38.22
2023-05-02T01:22:50.618Z,38.55
2023-05-02T01:25:50.623Z,38.47
2023-05-02T01:29:09.589Z,38.80
2023-05-02T01:32:09.638Z,39.07
2023-05-02T01:35:09.657Z,38.79
2023-05-02T01:38:09.733Z,39.00
2023-05-02T01:41:11.638Z,39.11
2023-05-02T01:44:11.726Z,39.22
2023-05-02T01:47:11.792Z,39.21
2023-05-02T01:50:12.619Z,39.43
2023-05-02T01:53:12.737Z,39.15
2023-05-02T01:56:12.672Z,39.43
2023-05-02T01:59:14.668Z,39.68
2023-05-02T02:02:14.639Z,39.66
2023-05-02T02:05:14.702Z,39.66
2023-05-02T02:08:07.844Z,39.70
2023-05-02T02:11:10.704Z,39.75
2023-05-02T02:14:19.709Z,39.80
2023-05-02T02:17:21.679Z,39.88
2023-05-02T02:20:21.690Z,40.35
2023-05-02T02:23:21.714Z,40.29
2023-05-02T02:26:21.780Z,40.56
2023-05-02T02:29:21.812Z,40.59
2023-05-02T02:32:21.711Z,40.78
2023-05-02T02:35:21.746Z,40.72
2023-05-02T02:38:33.823Z,40.95
2023-05-02T02:41:38.720Z,41.16
2023-05-02T02:44:45.148Z,41.02
2023-05-02T02:47:49.854Z,41.13
2023-05-02T02:50:49.725Z,40.90
2023-05-02T02:54:26.406Z,40.90
2023-05-02T02:57:28.780Z,41.00
2023-05-02T03:00:31.774Z,40.91
2023-05-02T03:03:35.006Z,40.97
2023-05-02T03:06:34.846Z,40.78
2023-05-02T03:09:36.782Z,41.03
2023-05-02T03:12:37.783Z,41.29
2023-05-02T03:15:57.793Z,41.39
2023-05-02T03:18:57.788Z,41.09
2023-05-02T03:21:57.813Z,40.99
2023-05-02T03:24:57.798Z,41.08
2023-05-02T03:27:57.806Z,40.81
2023-05-02T03:30:59.807Z,40.92
2023-05-02T03:34:01.897Z,40.99
2023-05-02T03:37:01.810Z,41.16
2023-05-02T03:40:02.122Z,41.21
2023-05-02T03:43:02.848Z,41.21
2023-05-02T03:46:02.809Z,41.12
2023-05-02T03:49:03.917Z,41.12
2023-05-02T03:52:03.922Z,41.01
2023-05-02T03:55:03.827Z,40.85
2023-05-02T03:58:03.836Z,41.04
2023-05-02T04:01:12.910Z,41.12
2023-05-02T04:04:14.966Z,40.84
2023-05-02T04:07:22.870Z,40.33
2023-05-02T04:10:25.868Z,40.35
2023-05-02T04:13:28.089Z,39.95
2023-05-02T04:16:27.929Z,39.89
2023-05-02T04:19:27.939Z,39.34
2023-05-02T04:22:28.910Z,39.44
2023-05-02T04:25:30.934Z,39.44
2023-05-02T04:28:30.912Z,39.51
2023-05-02T04:31:30.991Z,39.53
2023-05-02T04:34:30.913Z,39.31
2023-05-02T04:37:30.894Z,39.18
2023-05-02T04:40:31.010Z,39.26
2023-05-02T04:43:32.929Z,39.14
2023-05-02T04:46:33.015Z,39.12
2023-05-02T04:49:33.063Z,38.97
2023-05-02T04:52:32.944Z,39.01
2023-05-02T04:55:33.011Z,38.70
2023-05-02T04:58:36.793Z,38.65
2023-05-02T05:01:47.799Z,37.99
2023-05-02T05:04:54.908Z,37.63
2023-05-02T05:07:57.006Z,36.83
2023-05-02T05:10:59.944Z,36.34
2023-05-02T05:14:03.052Z,36.01
2023-05-02T05:17:04.973Z,35.55
2023-05-02T05:20:06.649Z,35.27
2023-05-02T05:23:09.039Z,34.29
2023-05-02T05:26:08.992Z,33.16
2023-05-02T05:29:11.005Z,32.76
2023-05-02T05:32:12.152Z,32.34
2023-05-02T05:35:12.025Z,31.69
2023-05-02T05:38:13.047Z,31.44
2023-05-02T05:41:14.133Z,30.53
2023-05-02T05:44:16.998Z,30.32
2023-05-02T05:47:17.061Z,28.29
2023-05-02T05:50:18.058Z,28.33
2023-05-02T05:53:18.024Z,28.41
2023-05-02T05:56:25.079Z,28.72
2023-05-02T05:59:32.094Z,28.72
2023-05-02T06:02:32.148Z,28.61
2023-05-02T06:05:32.065Z,28.75
2023-05-02T06:08:32.074Z,27.87
2023-05-02T06:11:34.119Z,27.30
2023-05-02T06:14:34.099Z,26.71
2023-05-02T06:17:34.174Z,26.56
2023-05-02T06:20:34.180Z,25.75
2023-05-02T06:23:34.111Z,25.88
2023-05-02T06:26:34.090Z,25.44
2023-05-02T06:29:34.100Z,24.95
2023-05-02T06:32:34.201Z,24.99
2023-05-02T06:35:34.195Z,25.28
2023-05-02T06:38:34.231Z,25.03
2023-05-02T06:41:34.124Z,25.08
2023-05-02T06:44:38.160Z,25.24
2023-05-02T06:47:38.255Z,25.30
2023-05-02T06:50:38.297Z,25.45
2023-05-02T06:53:38.206Z,24.53
2023-05-02T06:56:38.186Z,24.23
2023-05-02T06:59:38.180Z,23.91
2023-05-02T07:02:38.202Z,23.93
2023-05-02T07:05:38.223Z,24.14
2023-05-02T07:08:38.130Z,23.65
2023-05-02T07:11:38.269Z,23.32
2023-05-02T07:14:38.196Z,23.16
2023-05-02T07:17:38.277Z,22.29
2023-05-02T07:20:39.219Z,22.07
2023-05-02T07:23:39.195Z,21.71
2023-05-02T07:26:39.271Z,21.59
2023-05-02T07:29:32.322Z,20.84
2023-05-02T07:32:32.365Z,20.68
2023-05-02T07:35:33.233Z,20.64
2023-05-02T07:38:33.259Z,20.07
2023-05-02T07:41:33.247Z,19.55
2023-05-02T07:44:33.331Z,19.91
2023-05-02T07:47:33.373Z,19.69
2023-05-02T07:50:33.257Z,19.03
2023-05-02T07:53:33.233Z,19.41
2023-05-02T07:56:33.305Z,19.41
2023-05-02T07:59:33.278Z,19.75
2023-05-02T08:02:33.339Z,19.81
2023-05-02T08:05:33.322Z,19.07
2023-05-02T08:08:33.355Z,18.57
2023-05-02T08:11:35.300Z,18.59
2023-05-02T08:14:35.312Z,18.98
2023-05-02T08:17:35.439Z,18.82
2023-05-02T08:20:35.347Z,18.88
2023-05-02T08:23:35.358Z,18.57
2023-05-02T08:26:35.335Z,18.58
2023-05-02T08:29:35.348Z,18.38
2023-05-02T08:32:35.434Z,18.37
2023-05-02T08:35:35.384Z,18.61
2023-05-02T08:38:35.410Z,18.67
2023-05-02T08:41:35.365Z,18.68
2023-05-02T08:44:35.397Z,18.46
2023-05-02T08:47:35.438Z,18.53
2023-05-02T08:50:35.409Z,18.36
2023-05-02T08:53:35.351Z,18.16
2023-05-02T08:56:35.369Z,17.99
2023-05-02T08:59:35.397Z,17.50
2023-05-02T09:02:51.644Z,18.06
2023-05-02T09:05:54.419Z,18.54
2023-05-02T09:08:55.455Z,18.56
2023-05-02T09:11:55.495Z,18.63
2023-05-02T09:14:56.402Z,18.44
2023-05-02T09:17:56.495Z,18.69
2023-05-02T09:20:56.439Z,19.12
2023-05-02T09:23:56.436Z,19.26
2023-05-02T09:26:56.548Z,18.82
2023-05-02T09:29:56.455Z,18.64
2023-05-02T09:33:01.817Z,18.38
2023-05-02T09:36:06.486Z,19.00
2023-05-02T09:39:06.451Z,19.14
2023-05-02T09:42:06.501Z,18.40
2023-05-02T09:45:06.552Z,18.23
2023-05-02T09:48:07.530Z,18.91
2023-05-02T09:51:07.485Z,19.02
2023-05-02T09:54:07.488Z,19.31
2023-05-02T09:57:07.671Z,19.24
2023-05-02T10:00:08.500Z,19.10
2023-05-02T10:03:09.584Z,18.78
2023-05-02T10:06:09.601Z,18.35
2023-05-02T10:09:09.519Z,18.29
2023-05-02T10:12:14.524Z,18.22
2023-05-02T10:15:16.534Z,18.23
2023-05-02T10:18:20.537Z,17.76
2023-05-02T10:21:25.555Z,17.82
2023-05-02T10:24:25.513Z,18.24
2023-05-02T10:27:25.548Z,18.12
2023-05-02T10:30:27.820Z,18.23
2023-05-02T10:33:27.711Z,17.47
2023-05-02T10:36:27.625Z,17.39
2023-05-02T10:39:30.597Z,17.23
2023-05-02T10:42:30.527Z,17.36
2023-05-02T10:45:42.629Z,17.98
2023-05-02T10:48:44.604Z,18.06
2023-05-02T10:51:44.599Z,17.73
2023-05-02T10:54:44.611Z,18.28
2023-05-02T10:57:44.649Z,18.45
2023-05-02T11:00:44.682Z,18.77
2023-05-02T11:04:03.621Z,18.89
2023-05-02T11:07:10.600Z,18.69
2023-05-02T11:10:36.634Z,18.90
2023-05-02T11:14:08.664Z,18.32
2023-05-02T11:17:11.704Z,17.86
2023-05-02T11:20:11.841Z,17.54
2023-05-02T11:23:11.673Z,17.96
2023-05-02T11:26:11.660Z,18.43
2023-05-02T11:29:12.683Z,18.49
2023-05-02T11:32:12.841Z,18.38
2023-05-02T11:35:12.719Z,18.61
2023-05-02T11:38:13.715Z,19.01
2023-05-02T11:41:13.677Z,19.58
2023-05-02T11:44:16.853Z,19.34
2023-05-02T11:47:16.748Z,19.24
2023-05-02T11:50:19.709Z,19.05
2023-05-02T11:53:21.685Z,18.70
2023-05-02T11:56:21.719Z,19.05
2023-05-02T11:59:21.717Z,18.88
2023-05-02T12:02:21.769Z,19.08
2023-05-02T12:05:27.797Z,19.31
2023-05-02T12:08:31.803Z,19.68
2023-05-02T12:11:31.743Z,19.48
2023-05-02T12:14:32.808Z,19.55
2023-05-02T12:17:33.825Z,19.59
2023-05-02T12:20:34.783Z,19.51
2023-05-02T12:23:35.970Z,19.30
2023-05-02T12:26:39.764Z,19.31
2023-05-02T12:29:50.793Z,19.20
2023-05-02T12:32:51.812Z,19.77
2023-05-02T12:35:53.850Z,19.84
2023-05-02T12:38:54.552Z,19.96
2023-05-02T12:41:55.826Z,20.18
2023-05-02T12:44:58.038Z,19.81
2023-05-02T12:47:58.837Z,20.14
2023-05-02T12:50:58.866Z,20.12
2023-05-02T12:53:58.802Z,20.34
2023-05-02T12:56:58.843Z,20.56
2023-05-02T12:59:59.103Z,20.67
2023-05-02T13:03:02.947Z,20.71
2023-05-02T13:06:06.904Z,20.76
2023-05-02T13:09:07.986Z,20.35
2023-05-02T13:12:10.881Z,20.83
2023-05-02T13:15:10.946Z,20.81
2023-05-02T13:18:11.105Z,20.88
2023-05-02T13:21:05.281Z,20.89
2023-05-02T13:24:04.901Z,20.98
2023-05-02T13:27:06.220Z,21.42
2023-05-02T13:30:08.822Z,21.54
2023-05-02T13:33:10.034Z,21.76
2023-05-02T13:36:17.551Z,21.55
2023-05-02T13:39:24.429Z,21.69
2023-05-02T13:42:24.875Z,22.08
2023-05-02T13:45:27.869Z,21.78
2023-05-02T13:48:28.058Z,21.75
2023-05-02T13:51:31.894Z,21.85
2023-05-02T13:54:34.540Z,22.02
2023-05-02T13:57:36.093Z,22.35
2023-05-02T14:00:36.026Z,22.66
2023-05-02T14:03:37.106Z,22.25
2023-05-02T14:06:38.184Z,22.52
2023-05-02T14:09:38.039Z,22.80
2023-05-02T14:12:39.951Z,22.51
2023-05-02T14:15:41.091Z,22.93
2023-05-02T14:18:43.062Z,23.08
2023-05-02T14:21:44.996Z,22.85
2023-05-02T14:24:47.020Z,23.01
2023-05-02T14:27:47.033Z,23.05
2023-05-02T14:30:47.506Z,23.19
2023-05-02T14:33:49.042Z,23.40
2023-05-02T14:36:49.023Z,23.75
2023-05-02T14:39:53.525Z,23.73
2023-05-02T14:42:54.984Z,23.86
2023-05-02T14:45:56.012Z,23.92
2023-05-02T14:48:57.168Z,24.04
2023-05-02T14:51:58.753Z,24.13
2023-05-02T14:55:00.005Z,24.25
2023-05-02T14:58:00.651Z,24.41
2023-05-02T15:01:01.078Z,24.25
2023-05-02T15:04:06.456Z,24.40
2023-05-02T15:07:09.212Z,24.62
2023-05-02T15:10:11.208Z,24.66
2023-05-02T15:13:11.100Z,24.98
2023-05-02T15:16:12.179Z,24.92
2023-05-02T15:19:14.986Z,24.77
2023-05-02T15:22:16.135Z,24.90
2023-05-02T15:25:16.153Z,25.42
2023-05-02T15:28:16.506Z,25.37
2023-05-02T15:31:17.127Z,24.88
2023-05-02T15:34:18.254Z,25.06
2023-05-02T15:37:19.125Z,25.36
2023-05-02T15:40:21.158Z,25.26
2023-05-02T15:43:28.153Z,25.02
2023-05-02T15:46:30.209Z,24.97
2023-05-02T15:49:38.116Z,25.11
2023-05-02T15:52:39.127Z,24.75
2023-05-02T15:55:39.141Z,24.73
2023-05-02T15:58:41.643Z,25.07
2023-05-02T16:01:43.810Z,25.18
2023-05-02T16:04:46.274Z,24.88
2023-05-02T16:07:49.487Z,25.04
2023-05-02T16:10:52.450Z,25.13
2023-05-02T16:13:53.159Z,25.30
2023-05-02T16:16:54.348Z,25.41
2023-05-02T16:19:54.375Z,25.63
2023-05-02T16:23:00.540Z,26.03
2023-05-02T16:26:02.206Z,26.23
2023-05-02T16:28:56.272Z,26.42
2023-05-02T16:31:57.316Z,26.49
2023-05-02T16:34:57.174Z,26.73
2023-05-02T16:37:57.223Z,26.65
2023-05-02T16:40:59.229Z,26.69
2023-05-02T16:43:59.344Z,26.93
2023-05-02T16:47:00.532Z,27.04
2023-05-02T16:50:05.576Z,27.13
2023-05-02T16:53:06.485Z,27.36
2023-05-02T16:56:07.281Z,27.37
2023-05-02T16:59:07.254Z,27.58
2023-05-02T17:02:08.299Z,27.67
2023-05-02T17:05:08.363Z,27.84
2023-05-02T17:08:09.895Z,27.97
2023-05-02T17:11:11.338Z,27.91
2023-05-02T17:14:11.291Z,28.06
2023-05-02T17:17:11.410Z,28.28
2023-05-02T17:20:12.266Z,28.41
2023-05-02T17:23:12.276Z,28.54
2023-05-02T17:26:19.417Z,28.75
2023-05-02T17:29:19.901Z,28.88
2023-05-02T17:32:21.521Z,28.99
2023-05-02T17:35:23.332Z,29.12
2023-05-02T17:38:23.374Z,29.18
2023-05-02T17:41:23.324Z,29.23
2023-05-02T17:44:23.369Z,29.22
2023-05-02T17:47:25.279Z,29.37
2023-05-02T17:50:26.503Z,29.41
2023-05-02T17:53:26.333Z,29.58
2023-05-02T17:56:27.647Z,29.67
2023-05-02T17:59:29.427Z,29.76
2023-05-02T18:02:30.491Z,29.82
2023-05-02T18:05:32.425Z,30.00
2023-05-02T18:08:34.441Z,30.19
2023-05-02T18:11:34.380Z,30.27
2023-05-02T18:14:36.420Z,30.49
2023-05-02T18:17:37.468Z,30.55
2023-05-02T18:20:37.502Z,30.74
2023-05-02T18:23:37.469Z,30.95
2023-05-02T18:26:37.575Z,31.05
2023-05-02T18:29:39.416Z,31.25
2023-05-02T18:32:40.951Z,31.48
2023-05-02T18:35:56.835Z,31.88
2023-05-02T18:38:56.418Z,32.44
2023-05-02T18:41:56.430Z,32.89
2023-05-02T18:44:56.448Z,33.56
2023-05-02T18:47:58.455Z,34.58
2023-05-02T18:50:59.659Z,35.33
2023-05-02T18:54:00.469Z,35.65
2023-05-02T18:57:01.469Z,36.11
2023-05-02T19:00:04.023Z,36.52
2023-05-02T19:03:07.620Z,36.96
2023-05-02T19:06:08.580Z,37.33
2023-05-02T19:09:11.484Z,37.64
2023-05-02T19:12:11.468Z,37.97
2023-05-02T19:15:12.682Z,38.19
2023-05-02T19:18:13.015Z,38.26
2023-05-02T19:21:20.544Z,38.46
2023-05-02T19:24:25.625Z,38.51
2023-05-02T19:27:26.832Z,38.76
2023-05-02T19:30:27.667Z,38.90
2023-05-02T19:33:27.520Z,39.12
2023-05-02T19:36:28.533Z,39.18
2023-05-02T19:39:29.652Z,39.20
2023-05-02T19:42:31.741Z,39.39
2023-05-02T19:45:39.374Z,39.66
2023-05-02T19:48:41.644Z,39.71
2023-05-02T19:51:41.551Z,39.88
2023-05-02T19:54:42.065Z,40.02
2023-05-02T19:57:42.753Z,40.26
2023-05-02T20:00:44.686Z,40.32
2023-05-02T20:03:44.681Z,40.39
2023-05-02T20:06:45.632Z,40.50
2023-05-02T20:09:45.594Z,40.68
2023-05-02T20:12:45.592Z,40.86
2023-05-02T20:15:45.635Z,40.95
2023-05-02T20:18:46.608Z,41.01
2023-05-02T20:21:49.587Z,41.30
2023-05-02T20:24:49.597Z,41.25
2023-05-02T20:27:49.604Z,41.33
2023-05-02T20:30:49.653Z,41.29
2023-05-02T20:33:50.582Z,41.44
2023-05-02T20:36:58.673Z,41.57
2023-05-02T20:39:58.854Z,41.84
2023-05-02T20:42:59.675Z,42.08
2023-05-02T20:45:59.651Z,42.23
2023-05-02T20:49:01.765Z,42.43
2023-05-02T20:52:02.673Z,42.60
2023-05-02T20:55:02.682Z,42.69
2023-05-02T20:58:02.713Z,42.91
2023-05-02T21:01:02.702Z,43.17
2023-05-02T21:04:04.726Z,43.18
2023-05-02T21:07:04.872Z,43.28
2023-05-02T21:10:05.031Z,43.32
2023-05-02T21:13:05.673Z,43.48
2023-05-02T21:16:08.012Z,43.69
2023-05-02T21:19:07.776Z,43.71
2023-05-02T21:22:07.668Z,43.93
2023-05-02T21:25:08.746Z,44.31
2023-05-02T21:28:08.723Z,44.43
2023-05-02T21:31:08.757Z,44.83
2023-05-02T21:34:08.710Z,45.02
2023-05-02T21:37:11.251Z,45.17
2023-05-02T21:40:11.681Z,45.33
2023-05-02T21:43:11.744Z,45.63
2023-05-02T21:46:12.743Z,45.81
2023-05-02T21:49:12.771Z,46.04
2023-05-02T21:52:12.763Z,46.17
2023-05-02T21:55:12.741Z,46.49
2023-05-02T21:58:12.949Z,46.86
2023-05-02T22:01:13.781Z,46.80
2023-05-02T22:04:15.110Z,47.05
2023-05-02T22:07:14.748Z,47.12
2023-05-02T22:10:14.794Z,47.15
2023-05-02T22:13:17.773Z,47.13
2023-05-02T22:16:17.799Z,47.08
2023-05-02T22:19:17.789Z,47.17
2023-05-02T22:22:17.953Z,47.17
2023-05-02T22:25:17.866Z,47.20
2023-05-02T22:28:17.835Z,47.25
2023-05-02T22:31:17.874Z,47.18
2023-05-02T22:34:17.817Z,47.25
2023-05-02T22:37:18.827Z,47.44
2023-05-02T22:40:18.798Z,47.53
2023-05-02T22:43:18.936Z,47.70
2023-05-02T22:46:19.878Z,47.83
2023-05-02T22:49:20.853Z,47.94
2023-05-02T22:52:20.924Z,48.15
2023-05-02T22:55:20.876Z,48.53
2023-05-02T22:58:20.876Z,49.06
2023-05-02T23:01:20.865Z,49.54
2023-05-02T23:04:20.850Z,50.03
2023-05-02T23:07:21.086Z,50.47
2023-05-02T23:10:20.866Z,50.49
2023-05-02T23:13:20.930Z,50.56
2023-05-02T23:16:20.901Z,50.58
2023-05-02T23:19:21.911Z,50.53
2023-05-02T23:22:21.921Z,50.42
2023-05-02T23:25:24.005Z,50.44
2023-05-02T23:28:26.214Z,50.53
2023-05-02T23:31:26.953Z,50.48
2023-05-02T23:34:26.892Z,50.22
2023-05-02T23:37:26.949Z,50.16
2023-05-02T23:40:27.977Z,50.22
2023-05-02T23:43:28.936Z,50.27
2023-05-02T23:46:30.013Z,50.03
2023-05-02T23:49:30.953Z,50.21
2023-05-02T23:52:30.968Z,50.02
2023-05-02T23:55:30.956Z,49.72
2023-05-02T23:58:31.919Z,49.59
